Letzte 24h
Datum & Zeit Temp. Luft-
feuchte
Wind Nieder-
schlag
Luftdruck Tendenz
IN OUT IN OUT Richtung Min. Max.
2018.08.16 14:58 29.5 °C 27.6 °C 36% 32% NNO 14 ° 4 km/h 10 km/h 0.0 mm 1025.70 hPa langsam fallend
15:58 30.5 °C 28.1 °C 35% 34% NW 323 ° 4 km/h 12 km/h 0.0 mm 1025.30 hPa langsam fallend
16:58 31.0 °C 28.0 °C 33% 33% N 6 ° 4 km/h 10 km/h 0.0 mm 1024.60 hPa langsam fallend
17:58 31.0 °C 30.0 °C 37% 28% NO 49 ° 3 km/h 10 km/h 0.0 mm 1024.40 hPa langsam fallend
18:58 30.7 °C 29.6 °C 38% 31% O 93 ° 2 km/h 5 km/h 0.0 mm 1024.00 hPa langsam fallend
19:58 29.1 °C 25.5 °C 42% 37% S 180 ° 0 km/h 1 km/h 0.0 mm 1024.10 hPa langsam fallend
20:58 26.4 °C 21.0 °C 43% 53% S 180 ° 0 km/h 3 km/h 0.0 mm 1024.20 hPa langsam fallend
21:58 25.7 °C 20.4 °C 46% 56% S 180 ° 0 km/h 5 km/h 0.0 mm 1024.40 hPa langsam steigend
22:58 24.9 °C 19.3 °C 47% 61% SSW 191 ° 1 km/h 5 km/h 0.0 mm 1024.40 hPa langsam steigend
23:58 24.2 °C 18.1 °C 47% 63% SO 135 ° 0 km/h 3 km/h 0.0 mm 1024.30 hPa gleichbleibend
2018.08.17 00:58 23.5 °C 18.2 °C 49% 67% W 277 ° 2 km/h 5 km/h 0.0 mm 1024.10 hPa langsam fallend
01:58 23.0 °C 17.1 °C 50% 71% S 180 ° 0 km/h 1 km/h 0.0 mm 1024.10 hPa langsam fallend
02:58 22.5 °C 17.1 °C 50% 71% SW 225 ° 0 km/h 3 km/h 0.0 mm 1023.70 hPa langsam fallend
03:58 22.1 °C 15.1 °C 50% 80% W 270 ° 0 km/h 3 km/h 0.0 mm 1023.70 hPa langsam fallend
04:58 21.7 °C 14.6 °C 51% 81% S 180 ° 0 km/h 0 km/h 0.0 mm 1023.40 hPa langsam fallend
05:58 21.3 °C 14.3 °C 51% 83% S 180 ° 0 km/h 0 km/h 0.0 mm 1023.30 hPa langsam fallend
06:58 21.1 °C 18.4 °C 52% 76% W 270 ° 0 km/h 3 km/h 0.0 mm 1023.60 hPa langsam fallend
07:58 21.6 °C 21.4 °C 53% 61% NW 305 ° 0 km/h 4 km/h 0.0 mm 1023.90 hPa langsam steigend
08:58 22.9 °C 20.1 °C 52% 65% WNW 290 ° 3 km/h 9 km/h 0.0 mm 1023.90 hPa langsam steigend
09:58 24.3 °C 22.6 °C 53% 58% NNW 347 ° 3 km/h 7 km/h 0.0 mm 1024.00 hPa langsam steigend
10:58 25.7 °C 24.7 °C 52% 55% NNW 342 ° 5 km/h 11 km/h 0.0 mm 1023.70 hPa langsam fallend
11:58 27.2 °C 27.9 °C 49% 41% NW 307 ° 4 km/h 11 km/h 0.0 mm 1023.50 hPa langsam fallend
12:58 29.1 °C 29.0 °C 44% 38% ONO 76 ° 9 km/h 22 km/h 0.0 mm 1023.20 hPa langsam fallend
13:58 30.3 °C 30.9 °C 41% 33% ONO 67 ° 6 km/h 17 km/h 0.0 mm 1023.10 hPa langsam fallend

 

Verlauf: letzte 24h
WIND   Windrose
(Klicke ins Bild, um den Hintergrund abzuschalten)
WIND   Windverkauf 2.5h
TEMP   Temperatur 2.5h
Druck   Luftdruck 2.5h
Regen   Luftdruck 2.5h